Time;durP1;ratioP1;P1;durP2;ratioP2;P2;SDS_P1;SDS_P2;PMS_P1;PMS_P2;Temp;Humidity;BMP_temperature;BMP_pressure;BME280_temperature;BME280_humidity;BME280_pressure;Samples;Min_cycle;Max_cycle;Signal;HPM_P1;HPM_P2
2022/07/22 00:00:13;;;;;;;21.98;4.63;;;15.30;99.90;;;;;;5060528;28;20326;-70
2022/07/22 00:02:39;;;;;;;23.35;5.25;;;15.50;99.90;;;;;;5061268;28;20563;-72
2022/07/22 00:05:06;;;;;;;22.55;5.00;;;15.30;99.90;;;;;;5060362;28;20554;-70
2022/07/22 00:07:32;;;;;;;21.45;5.60;;;15.40;99.90;;;;;;5060443;28;20071;-70
2022/07/22 00:09:58;;;;;;;21.95;5.07;;;15.40;99.90;;;;;;5059132;28;20040;-68
2022/07/22 00:12:23;;;;;;;24.67;6.18;;;15.40;99.90;;;;;;5039927;28;20048;-70
2022/07/22 00:14:49;;;;;;;20.33;6.65;;;15.50;99.90;;;;;;5064239;28;20116;-68
2022/07/22 00:17:15;;;;;;;21.50;6.97;;;15.40;99.90;;;;;;5060753;28;20685;-71
2022/07/22 00:19:40;;;;;;;25.95;7.22;;;15.40;99.90;;;;;;5057015;28;20171;-69
2022/07/22 00:22:06;;;;;;;25.52;7.32;;;15.50;99.90;;;;;;5061416;28;20717;-69
2022/07/22 00:24:32;;;;;;;20.27;6.43;;;15.50;99.90;;;;;;5057972;28;20338;-70
2022/07/22 00:26:57;;;;;;;19.88;6.05;;;15.50;99.90;;;;;;5056125;28;20040;-68
2022/07/22 00:29:23;;;;;;;23.02;6.50;;;15.50;99.90;;;;;;5057426;28;20044;-70
2022/07/22 00:31:49;;;;;;;18.13;5.70;;;15.60;99.90;;;;;;5057643;28;20645;-69
2022/07/22 00:34:14;;;;;;;24.70;6.00;;;15.40;99.90;;;;;;5056145;28;20112;-69
2022/07/22 00:36:40;;;;;;;21.00;4.63;;;15.50;99.90;;;;;;5056366;28;20089;-69
2022/07/22 00:39:06;;;;;;;21.00;5.10;;;15.40;99.90;;;;;;5041441;28;20656;-69
2022/07/22 00:41:32;;;;;;;19.08;3.88;;;15.50;99.90;;;;;;5057665;28;20052;-70
2022/07/22 00:44:04;;;;;;;14.35;3.65;;;15.50;99.90;;;;;;5039520;28;20075;-69
2022/07/22 00:46:31;;;;;;;19.40;3.70;;;15.60;99.90;;;;;;5057310;28;20060;-69
2022/07/22 00:48:57;;;;;;;17.02;3.25;;;15.50;99.90;;;;;;5057476;28;20262;-69
2022/07/22 00:51:23;;;;;;;18.35;3.53;;;15.60;99.90;;;;;;5036640;28;20531;-71
2022/07/22 00:53:49;;;;;;;18.27;3.10;;;15.60;99.90;;;;;;5055669;28;20043;-70
2022/07/22 00:56:17;;;;;;;15.48;2.60;;;15.50;99.90;;;;;;5057350;28;20052;-69
2022/07/22 00:58:43;;;;;;;12.43;2.80;;;15.60;99.90;;;;;;5039624;28;20039;-69
2022/07/22 01:01:09;;;;;;;13.02;2.40;;;15.60;99.90;;;;;;5058396;28;20048;-68
2022/07/22 01:03:35;;;;;;;14.50;2.22;;;15.60;99.90;;;;;;5056333;28;20670;-69
2022/07/22 01:06:01;;;;;;;17.63;3.50;;;15.60;99.90;;;;;;5042035;28;20116;-68
2022/07/22 01:08:27;;;;;;;14.73;2.80;;;15.70;99.90;;;;;;5043161;28;20048;-70
2022/07/22 01:10:53;;;;;;;16.25;3.17;;;15.60;99.90;;;;;;5061782;28;20067;-68
2022/07/22 01:13:18;;;;;;;11.73;3.45;;;15.50;99.90;;;;;;5060546;28;20037;-71
2022/07/22 01:15:44;;;;;;;12.52;3.17;;;15.60;99.90;;;;;;5063570;28;20076;-69
2022/07/22 01:18:10;;;;;;;13.05;3.58;;;15.60;99.90;;;;;;5042444;28;20028;-67
2022/07/22 01:20:36;;;;;;;13.23;3.60;;;15.60;99.90;;;;;;5063442;28;20572;-69
2022/07/22 01:23:02;;;;;;;12.82;3.80;;;15.60;99.90;;;;;;5045062;28;20055;-70
2022/07/22 01:25:28;;;;;;;15.25;3.60;;;15.50;99.90;;;;;;5061801;28;20044;-69
2022/07/22 01:27:54;;;;;;;12.15;3.30;;;15.50;99.90;;;;;;5061060;28;20153;-70
2022/07/22 01:30:21;;;;;;;11.95;2.85;;;15.60;99.90;;;;;;5042613;28;20041;-69
2022/07/22 01:32:47;;;;;;;10.57;2.60;;;15.50;99.90;;;;;;5057041;28;20051;-70
2022/07/22 01:35:12;;;;;;;12.52;2.90;;;15.50;99.90;;;;;;5058462;28;20044;-68
2022/07/22 01:37:38;;;;;;;11.77;2.70;;;15.40;99.90;;;;;;5059145;28;20075;-69
2022/07/22 01:40:04;;;;;;;17.42;3.90;;;15.50;99.90;;;;;;5038820;28;20491;-69
2022/07/22 01:42:30;;;;;;;14.30;2.88;;;15.50;99.90;;;;;;5062083;28;20036;-69
2022/07/22 01:44:56;;;;;;;12.30;3.00;;;15.40;99.90;;;;;;5054840;28;20028;-70
2022/07/22 01:47:21;;;;;;;12.32;2.83;;;15.40;99.90;;;;;;5058663;28;20420;-68
2022/07/22 01:49:47;;;;;;;11.45;2.60;;;15.50;99.90;;;;;;5057176;28;20110;-69
2022/07/22 01:52:13;;;;;;;13.65;2.65;;;15.50;99.90;;;;;;5021281;28;20683;-69
2022/07/22 01:54:39;;;;;;;14.80;2.50;;;15.40;99.90;;;;;;5056362;28;20086;-71
2022/07/22 01:57:04;;;;;;;10.02;2.38;;;15.50;99.90;;;;;;5043265;28;20052;-71
2022/07/22 01:59:30;;;;;;;11.07;2.42;;;15.40;99.90;;;;;;5056925;28;20044;-69
2022/07/22 02:01:56;;;;;;;14.38;2.25;;;15.50;99.90;;;;;;5054954;28;20047;-68
2022/07/22 02:04:21;;;;;;;10.20;1.70;;;15.50;99.90;;;;;;5039641;28;20264;-69
2022/07/22 02:06:47;;;;;;;9.75;1.50;;;15.50;99.90;;;;;;5054077;28;20227;-69
2022/07/22 02:09:14;;;;;;;11.35;1.42;;;15.60;99.90;;;;;;5049629;28;20140;-70
2022/07/22 02:11:39;;;;;;;15.32;1.40;;;15.60;99.90;;;;;;5052974;28;20051;-70
2022/07/22 02:14:05;;;;;;;10.55;1.20;;;15.60;99.90;;;;;;5042791;28;20037;-69
2022/07/22 02:16:31;;;;;;;8.00;1.80;;;15.60;99.90;;;;;;5050227;28;20094;-68
2022/07/22 02:18:56;;;;;;;7.80;1.30;;;15.60;99.90;;;;;;5038736;28;20178;-70
2022/07/22 02:21:23;;;;;;;11.75;1.40;;;15.50;99.90;;;;;;5042073;28;20043;-69
2022/07/22 02:23:48;;;;;;;7.38;1.30;;;15.60;99.90;;;;;;5067099;28;20059;-69
2022/07/22 02:26:14;;;;;;;11.20;1.70;;;15.60;99.90;;;;;;5057439;28;20056;-70
2022/07/22 02:28:40;;;;;;;8.00;1.23;;;15.50;99.90;;;;;;5034676;28;20063;-69
2022/07/22 02:31:06;;;;;;;10.32;1.17;;;15.50;99.90;;;;;;5043035;28;20040;-70
2022/07/22 02:33:31;;;;;;;5.70;0.80;;;15.50;99.90;;;;;;5062472;28;20075;-68
2022/07/22 02:35:57;;;;;;;7.75;1.00;;;15.50;99.90;;;;;;5058194;28;20131;-68
2022/07/22 02:38:23;;;;;;;7.30;0.98;;;15.50;99.90;;;;;;5054654;28;20083;-67
2022/07/22 02:40:49;;;;;;;11.98;1.42;;;15.50;99.90;;;;;;5054580;28;20089;-71
2022/07/22 02:43:14;;;;;;;6.85;1.33;;;15.40;99.90;;;;;;5058069;28;20689;-68
2022/07/22 02:45:40;;;;;;;9.40;1.17;;;15.40;99.90;;;;;;5039324;28;20516;-69
2022/07/22 02:48:06;;;;;;;8.38;0.90;;;15.40;99.90;;;;;;5036437;28;20049;-69
2022/07/22 02:50:35;;;;;;;7.50;1.20;;;15.40;99.90;;;;;;5055271;28;20127;-69
2022/07/22 02:53:01;;;;;;;10.48;1.40;;;15.40;99.90;;;;;;5053496;28;20764;-69
2022/07/22 02:55:27;;;;;;;10.05;1.40;;;15.50;99.90;;;;;;5059960;28;20037;-69
2022/07/22 02:57:52;;;;;;;11.88;1.52;;;15.40;99.90;;;;;;5056331;28;20079;-71
2022/07/22 03:00:18;;;;;;;6.63;1.10;;;15.40;99.90;;;;;;5034761;28;20045;-68
2022/07/22 03:02:44;;;;;;;10.07;1.30;;;15.40;99.90;;;;;;5040626;28;20037;-70
2022/07/22 03:05:10;;;;;;;9.18;1.45;;;15.40;99.90;;;;;;5033577;28;20053;-70
2022/07/22 03:07:35;;;;;;;9.57;0.85;;;15.40;99.90;;;;;;5050561;28;20043;-70
2022/07/22 03:10:02;;;;;;;10.90;0.93;;;15.40;99.90;;;;;;5036159;28;20043;-68
2022/07/22 03:12:28;;;;;;;10.43;1.10;;;15.40;99.90;;;;;;5036976;28;20813;-68
2022/07/22 03:14:54;;;;;;;8.30;0.98;;;15.40;99.90;;;;;;5054846;28;20044;-69
2022/07/22 03:17:19;;;;;;;10.23;1.10;;;15.30;99.90;;;;;;5028879;28;20028;-69
2022/07/22 03:19:45;;;;;;;10.18;1.05;;;15.30;99.90;;;;;;5058660;28;20047;-70
2022/07/22 03:22:11;;;;;;;7.65;0.88;;;15.30;99.90;;;;;;5055735;28;20039;-68
2022/07/22 03:24:36;;;;;;;10.98;1.13;;;15.30;99.90;;;;;;5036338;28;20609;-68
2022/07/22 03:27:02;;;;;;;7.03;1.00;;;15.30;99.90;;;;;;5055721;28;20429;-68
2022/07/22 03:29:28;;;;;;;5.10;0.65;;;15.30;99.90;;;;;;5050675;28;20924;-69
2022/07/22 03:31:53;;;;;;;6.25;0.88;;;15.30;99.90;;;;;;5040176;28;20138;-69
2022/07/22 03:34:19;;;;;;;6.15;0.80;;;15.30;99.90;;;;;;5058628;28;20071;-71
2022/07/22 03:36:45;;;;;;;7.57;0.90;;;15.30;99.90;;;;;;5058972;28;20036;-68
2022/07/22 03:39:10;;;;;;;6.38;0.82;;;15.20;99.90;;;;;;5041885;28;20056;-67
2022/07/22 03:41:36;;;;;;;8.98;1.20;;;15.30;99.90;;;;;;5054589;28;20101;-69
2022/07/22 03:44:02;;;;;;;10.65;1.10;;;15.30;99.90;;;;;;5059989;28;20032;-70
2022/07/22 03:46:27;;;;;;;7.97;1.10;;;15.30;99.90;;;;;;5051802;28;20366;-68
2022/07/22 03:48:53;;;;;;;9.60;1.20;;;15.30;99.90;;;;;;5031742;28;20074;-69
2022/07/22 03:51:19;;;;;;;11.00;1.65;;;15.30;99.90;;;;;;5030382;28;20165;-69
2022/07/22 03:53:44;;;;;;;12.15;1.38;;;15.30;99.90;;;;;;5054583;28;20074;-69
2022/07/22 03:56:11;;;;;;;7.57;1.20;;;15.30;99.90;;;;;;5031595;28;20052;-70
2022/07/22 03:58:37;;;;;;;10.38;1.15;;;15.30;99.90;;;;;;5062092;28;20195;-68
2022/07/22 04:01:02;;;;;;;12.25;1.20;;;15.30;99.90;;;;;;5054398;28;20049;-68
2022/07/22 04:03:28;;;;;;;9.20;1.52;;;15.40;99.90;;;;;;5037397;28;20048;-68
2022/07/22 04:05:54;;;;;;;8.55;1.02;;;15.40;99.90;;;;;;5059144;28;20053;-69
2022/07/22 04:08:19;;;;;;;9.82;1.20;;;15.40;99.90;;;;;;5041300;28;20528;-70
2022/07/22 04:10:46;;;;;;;13.18;1.40;;;15.30;99.90;;;;;;5042532;28;20201;-69
2022/07/22 04:13:12;;;;;;;10.85;1.55;;;15.30;99.90;;;;;;5029369;28;20145;-70
2022/07/22 04:15:38;;;;;;;6.10;0.88;;;15.30;99.90;;;;;;5058005;28;20120;-68
2022/07/22 04:18:03;;;;;;;6.95;0.82;;;15.40;99.90;;;;;;5038506;28;20639;-69
2022/07/22 04:20:29;;;;;;;8.18;1.00;;;15.40;99.90;;;;;;5053082;28;20059;-68
2022/07/22 04:22:55;;;;;;;8.13;1.13;;;15.30;99.90;;;;;;5054853;28;20040;-69
2022/07/22 04:25:20;;;;;;;7.88;1.30;;;15.40;99.90;;;;;;5027747;28;20048;-69
2022/07/22 04:27:46;;;;;;;6.53;1.00;;;15.40;99.90;;;;;;5040217;28;20060;-68
2022/07/22 04:30:12;;;;;;;9.98;0.82;;;15.40;99.90;;;;;;5055120;28;20036;-69
2022/07/22 04:32:38;;;;;;;9.73;1.00;;;15.40;99.90;;;;;;5055581;28;20135;-69
2022/07/22 04:35:04;;;;;;;8.65;1.30;;;15.30;99.90;;;;;;5063875;28;20713;-69
2022/07/22 04:37:30;;;;;;;5.72;0.98;;;15.40;99.90;;;;;;5058943;28;20051;-70
2022/07/22 04:39:56;;;;;;;5.03;0.98;;;15.40;99.90;;;;;;5039736;28;20040;-70
2022/07/22 04:42:22;;;;;;;5.57;0.80;;;15.40;99.90;;;;;;5056695;28;20582;-69
2022/07/22 04:44:47;;;;;;;7.40;1.10;;;15.40;99.90;;;;;;5048188;28;20032;-69
2022/07/22 04:47:13;;;;;;;6.57;1.00;;;15.40;99.90;;;;;;5058859;28;20040;-68
2022/07/22 04:49:39;;;;;;;5.75;0.70;;;15.40;99.90;;;;;;5036573;28;20060;-67
2022/07/22 04:52:05;;;;;;;6.40;1.30;;;15.40;99.90;;;;;;5052816;28;20139;-68
2022/07/22 04:54:31;;;;;;;4.65;0.80;;;15.40;99.90;;;;;;5064573;28;20044;-70
2022/07/22 04:56:57;;;;;;;6.68;0.90;;;15.40;99.90;;;;;;5060085;28;20424;-68
2022/07/22 04:59:22;;;;;;;6.53;1.05;;;15.40;99.90;;;;;;5042712;28;20484;-70
2022/07/22 05:01:48;;;;;;;7.60;0.85;;;15.40;99.90;;;;;;5058143;28;20028;-69
2022/07/22 05:04:14;;;;;;;7.30;0.90;;;15.40;99.90;;;;;;5042258;28;20041;-68
2022/07/22 05:06:39;;;;;;;5.95;0.70;;;15.50;99.90;;;;;;5055418;28;20413;-69
2022/07/22 05:09:06;;;;;;;9.55;0.80;;;15.50;99.90;;;;;;5046210;28;20055;-68
2022/07/22 05:11:31;;;;;;;10.77;1.02;;;15.50;99.90;;;;;;5057909;28;20047;-68
2022/07/22 05:13:57;;;;;;;6.60;1.10;;;15.50;99.90;;;;;;5038922;28;20044;-70
2022/07/22 05:16:23;;;;;;;4.60;0.80;;;15.50;99.90;;;;;;5059755;28;20047;-69
2022/07/22 05:18:48;;;;;;;6.75;0.75;;;15.50;99.90;;;;;;5062981;28;20032;-69
2022/07/22 05:21:14;;;;;;;5.40;0.75;;;15.50;99.90;;;;;;5032355;28;20076;-69
2022/07/22 05:23:40;;;;;;;7.63;0.98;;;15.50;99.90;;;;;;5040378;28;20059;-70
2022/07/22 05:26:06;;;;;;;6.53;0.98;;;15.60;99.90;;;;;;5057644;28;20032;-68
2022/07/22 05:28:31;;;;;;;10.13;0.80;;;15.60;99.90;;;;;;5036204;28;20466;-71
2022/07/22 05:30:57;;;;;;;7.32;0.80;;;15.60;99.90;;;;;;5041640;28;20820;-70
2022/07/22 05:33:22;;;;;;;4.93;1.10;;;15.60;99.90;;;;;;5042376;28;20566;-67
2022/07/22 05:35:48;;;;;;;8.65;0.70;;;15.60;99.90;;;;;;5035737;28;20519;-68
2022/07/22 05:38:14;;;;;;;5.20;0.88;;;15.60;99.90;;;;;;5024390;28;20105;-69
2022/07/22 05:40:40;;;;;;;9.43;0.70;;;15.70;99.90;;;;;;5057946;28;20037;-69
2022/07/22 05:43:06;;;;;;;5.28;0.68;;;15.70;99.90;;;;;;5036256;28;20049;-70
2022/07/22 05:45:31;;;;;;;8.63;0.88;;;15.70;99.90;;;;;;5050889;28;20048;-69
2022/07/22 05:47:57;;;;;;;6.10;0.70;;;15.80;99.90;;;;;;5057279;28;20044;-70
2022/07/22 05:50:23;;;;;;;5.03;0.70;;;15.80;99.90;;;;;;5062466;28;20475;-68
2022/07/22 05:52:48;;;;;;;3.67;0.60;;;15.90;99.90;;;;;;5055274;28;20869;-69
2022/07/22 05:55:14;;;;;;;6.57;0.93;;;16.00;99.90;;;;;;5052261;28;20052;-69
2022/07/22 05:57:40;;;;;;;6.00;0.70;;;16.00;99.90;;;;;;5033934;28;20057;-71
2022/07/22 06:00:07;;;;;;;6.88;0.70;;;16.00;99.90;;;;;;5047516;28;20336;-69
2022/07/22 06:02:32;;;;;;;6.40;0.90;;;16.00;99.90;;;;;;5037011;28;20043;-69
2022/07/22 06:05:00;;;;;;;5.28;0.55;;;16.00;99.90;;;;;;5033900;28;20049;-69
2022/07/22 06:07:26;;;;;;;5.07;0.70;;;16.10;99.90;;;;;;5047862;28;20171;-68
2022/07/22 06:09:52;;;;;;;3.42;0.40;;;16.00;99.90;;;;;;5053163;28;20032;-68
2022/07/22 06:12:18;;;;;;;7.05;0.50;;;16.10;99.90;;;;;;5054936;28;20107;-69
2022/07/22 06:14:44;;;;;;;4.60;0.50;;;16.10;99.90;;;;;;5056793;28;20120;-68
2022/07/22 06:17:09;;;;;;;5.53;0.65;;;16.10;99.90;;;;;;5039408;28;20640;-70
2022/07/22 06:19:35;;;;;;;4.25;0.68;;;16.10;99.90;;;;;;5036594;28;20131;-68
2022/07/22 06:22:01;;;;;;;5.70;0.47;;;16.10;99.90;;;;;;5005973;28;20040;-68
2022/07/22 06:24:27;;;;;;;5.32;0.60;;;16.20;99.90;;;;;;5019374;28;20135;-68
2022/07/22 06:26:53;;;;;;;4.78;0.50;;;16.20;99.90;;;;;;5049898;28;20029;-68
2022/07/22 06:29:18;;;;;;;5.40;0.40;;;16.20;99.90;;;;;;5054664;28;20128;-68
2022/07/22 06:31:44;;;;;;;4.95;0.50;;;16.30;99.90;;;;;;5033071;28;20056;-69
2022/07/22 06:34:09;;;;;;;6.30;0.50;;;16.30;99.90;;;;;;5058344;28;20036;-69
2022/07/22 06:36:35;;;;;;;5.28;0.50;;;16.40;99.90;;;;;;5053614;28;20048;-69
2022/07/22 06:39:01;;;;;;;3.58;0.50;;;16.40;99.90;;;;;;5051435;28;20446;-71
2022/07/22 06:41:27;;;;;;;6.28;0.55;;;16.40;99.90;;;;;;5059411;28;20444;-68
2022/07/22 06:43:53;;;;;;;4.50;0.73;;;16.40;99.90;;;;;;5030383;28;20105;-69
2022/07/22 06:46:19;;;;;;;4.82;0.32;;;16.50;99.90;;;;;;5064621;28;20039;-68
2022/07/22 06:48:45;;;;;;;6.15;0.60;;;16.50;99.90;;;;;;5019858;28;20052;-69
2022/07/22 06:51:10;;;;;;;4.50;0.40;;;16.50;99.90;;;;;;5055199;28;20354;-69
2022/07/22 06:53:36;;;;;;;7.32;0.40;;;16.60;99.90;;;;;;5035278;28;20048;-70
2022/07/22 06:56:02;;;;;;;4.70;0.47;;;16.60;99.90;;;;;;5052076;28;20803;-68
2022/07/22 06:58:28;;;;;;;5.53;0.40;;;16.70;99.90;;;;;;5038703;28;20044;-68
2022/07/22 07:00:53;;;;;;;7.00;0.52;;;16.80;99.90;;;;;;5059608;28;20039;-70
2022/07/22 07:03:20;;;;;;;3.20;0.65;;;16.80;99.90;;;;;;5034812;28;20039;-70
2022/07/22 07:05:45;;;;;;;6.32;0.45;;;16.90;99.90;;;;;;5035621;28;20691;-69
2022/07/22 07:08:11;;;;;;;2.97;0.30;;;16.90;99.90;;;;;;5057444;28;20059;-68
2022/07/22 07:10:36;;;;;;;4.18;0.40;;;17.00;99.90;;;;;;5036653;28;20048;-70
2022/07/22 07:13:02;;;;;;;5.80;0.40;;;17.00;99.90;;;;;;5057122;28;20646;-69
2022/07/22 07:15:28;;;;;;;5.82;0.40;;;17.00;99.90;;;;;;5037205;28;20056;-69
2022/07/22 07:17:56;;;;;;;3.47;0.40;;;17.00;99.90;;;;;;5036753;28;20224;-71
2022/07/22 07:20:22;;;;;;;4.78;0.50;;;16.90;99.90;;;;;;5050994;28;20549;-70
2022/07/22 07:22:48;;;;;;;6.90;0.52;;;16.90;99.90;;;;;;5020680;28;20044;-69
2022/07/22 07:25:14;;;;;;;6.40;0.40;;;17.10;99.90;;;;;;5055681;28;20797;-69
2022/07/22 07:27:40;;;;;;;3.20;0.45;;;17.10;99.90;;;;;;5035907;28;20357;-69
2022/07/22 07:30:08;;;;;;;4.15;0.50;;;17.20;99.90;;;;;;5054903;28;20097;-69
2022/07/22 07:32:34;;;;;;;4.53;0.60;;;17.30;99.90;;;;;;5050479;28;20045;-69
2022/07/22 07:35:00;;;;;;;4.85;0.50;;;17.30;99.90;;;;;;5035014;28;20055;-69
2022/07/22 07:37:26;;;;;;;4.25;0.30;;;17.20;99.90;;;;;;5036690;28;20040;-69
2022/07/22 07:39:52;;;;;;;4.10;0.38;;;17.20;99.90;;;;;;5036400;28;20098;-71
2022/07/22 07:42:17;;;;;;;5.97;0.50;;;17.20;99.90;;;;;;5057478;28;20584;-69
2022/07/22 07:44:43;;;;;;;4.28;0.60;;;17.10;99.90;;;;;;5054967;28;20630;-69
2022/07/22 07:47:09;;;;;;;7.03;0.60;;;17.10;99.90;;;;;;5054629;28;20098;-68
2022/07/22 07:49:34;;;;;;;3.10;0.40;;;17.00;99.90;;;;;;5059018;28;20900;-69
2022/07/22 07:52:00;;;;;;;4.53;0.40;;;17.20;99.90;;;;;;5057695;28;20040;-69
2022/07/22 07:54:26;;;;;;;5.30;0.50;;;17.10;99.90;;;;;;5039921;28;20536;-71
2022/07/22 07:56:52;;;;;;;5.80;0.22;;;17.20;99.90;;;;;;5039480;28;20048;-68
2022/07/22 07:59:18;;;;;;;4.70;0.50;;;17.30;99.90;;;;;;5058511;28;20040;-69
2022/07/22 08:01:44;;;;;;;2.63;0.30;;;17.30;99.90;;;;;;5058113;28;20032;-69
2022/07/22 08:04:09;;;;;;;3.47;0.30;;;17.20;99.90;;;;;;5055135;28;20083;-68
2022/07/22 08:06:36;;;;;;;6.38;0.50;;;17.30;99.90;;;;;;5038355;28;20970;-68
2022/07/22 08:09:02;;;;;;;5.97;0.40;;;17.40;99.90;;;;;;5053865;28;20102;-68
2022/07/22 08:11:27;;;;;;;3.00;0.30;;;17.40;99.90;;;;;;5061993;28;20043;-68
2022/07/22 08:13:53;;;;;;;4.45;0.30;;;17.60;99.90;;;;;;5041987;28;20048;-68
2022/07/22 08:16:18;;;;;;;3.53;0.30;;;17.70;99.90;;;;;;5042923;28;20068;-67
2022/07/22 08:18:44;;;;;;;3.42;0.30;;;17.80;99.90;;;;;;5062419;28;20094;-68
2022/07/22 08:21:10;;;;;;;2.40;0.30;;;17.90;99.90;;;;;;5059529;28;20036;-69
2022/07/22 08:23:36;;;;;;;2.53;0.30;;;17.90;99.90;;;;;;5059311;28;20059;-68
2022/07/22 08:26:01;;;;;;;3.90;0.40;;;18.00;99.90;;;;;;5060930;28;20050;-69
2022/07/22 08:28:27;;;;;;;9.57;0.45;;;18.30;99.90;;;;;;5042396;28;20080;-69
2022/07/22 08:30:53;;;;;;;2.92;0.30;;;18.60;99.90;;;;;;5057606;28;20095;-71
2022/07/22 08:33:18;;;;;;;3.80;0.30;;;18.50;99.90;;;;;;5038707;28;20444;-68
2022/07/22 08:35:44;;;;;;;4.63;0.30;;;18.60;99.90;;;;;;5042657;28;20602;-68
2022/07/22 08:38:10;;;;;;;4.70;0.80;;;18.70;99.90;;;;;;5057797;28;20142;-68
2022/07/22 08:40:36;;;;;;;5.25;0.40;;;18.50;99.90;;;;;;5058720;28;20468;-68
2022/07/22 08:43:02;;;;;;;3.85;0.30;;;18.30;99.90;;;;;;5036469;28;20045;-67
2022/07/22 08:45:29;;;;;;;6.75;0.50;;;18.40;99.90;;;;;;5039397;28;20036;-69
2022/07/22 08:47:55;;;;;;;7.72;0.50;;;18.30;99.90;;;;;;5055339;28;20760;-68
2022/07/22 08:50:21;;;;;;;5.38;0.38;;;18.00;99.90;;;;;;5054982;28;20037;-67
2022/07/22 08:52:47;;;;;;;5.30;0.40;;;17.90;99.90;;;;;;5059106;28;20770;-68
2022/07/22 08:55:13;;;;;;;5.28;0.30;;;17.90;99.90;;;;;;5058112;28;20037;-67
2022/07/22 08:57:44;;;;;;;3.50;0.30;;;17.90;99.90;;;;;;5057983;28;20373;-68
2022/07/22 09:00:12;;;;;;;3.42;0.30;;;18.00;99.90;;;;;;5041790;28;20044;-69
2022/07/22 09:02:40;;;;;;;3.95;0.40;;;18.00;99.90;;;;;;5058556;28;20051;-69
2022/07/22 09:05:08;;;;;;;6.30;0.40;;;18.00;99.90;;;;;;5057247;28;20071;-69
2022/07/22 09:07:40;;;;;;;3.50;0.60;;;18.10;99.90;;;;;;5039065;28;20036;-68
2022/07/22 09:10:08;;;;;;;3.65;0.30;;;18.20;99.90;;;;;;5055463;28;20354;-68
2022/07/22 09:12:34;;;;;;;4.55;0.28;;;18.30;99.90;;;;;;5040956;28;20086;-70
2022/07/22 09:15:02;;;;;;;2.85;0.30;;;18.30;99.90;;;;;;5057093;28;20041;-70
2022/07/22 09:17:37;;;;;;;4.07;0.30;;;18.30;99.90;;;;;;5038281;28;20078;-67
2022/07/22 09:20:15;;;;;;;3.17;0.30;;;18.30;99.90;;;;;;5054378;28;20059;-68
2022/07/22 09:22:43;;;;;;;4.05;0.30;;;18.40;99.90;;;;;;5038307;28;20153;-67
2022/07/22 09:25:19;;;;;;;2.45;0.20;;;18.40;99.90;;;;;;5036650;28;20072;-67
2022/07/22 09:27:46;;;;;;;3.65;0.20;;;18.20;99.90;;;;;;5056521;28;20665;-68
2022/07/22 09:30:23;;;;;;;4.63;0.30;;;18.30;99.90;;;;;;5054498;28;20052;-69
2022/07/22 09:32:49;;;;;;;2.45;0.30;;;18.40;99.90;;;;;;5054446;28;20434;-67
2022/07/22 09:35:16;;;;;;;3.83;0.20;;;18.40;99.90;;;;;;5023298;28;20048;-68
2022/07/22 09:37:57;;;;;;;1.60;0.20;;;18.40;99.90;;;;;;5039182;28;20170;-68
2022/07/22 09:40:29;;;;;;;2.60;0.30;;;18.60;99.90;;;;;;5038379;28;20048;-68
2022/07/22 09:42:57;;;;;;;2.55;0.30;;;18.50;99.90;;;;;;5055331;28;20048;-69
2022/07/22 09:45:25;;;;;;;3.47;0.20;;;18.40;99.90;;;;;;5055259;28;20797;-68
2022/07/22 09:47:53;;;;;;;3.85;0.20;;;18.50;99.90;;;;;;5037945;28;20052;-68
2022/07/22 09:50:21;;;;;;;2.25;0.20;;;18.40;99.90;;;;;;5041795;28;21131;-67
2022/07/22 09:52:49;;;;;;;3.22;0.30;;;18.30;99.90;;;;;;5057144;28;20052;-68
2022/07/22 09:55:16;;;;;;;3.15;0.20;;;18.40;99.90;;;;;;5058122;28;20355;-69
2022/07/22 09:57:43;;;;;;;3.20;0.20;;;18.70;99.90;;;;;;5058070;28;20150;-68
2022/07/22 10:00:09;;;;;;;4.28;0.32;;;18.80;99.90;;;;;;5038052;28;20203;-67
2022/07/22 10:02:48;;;;;;;2.28;0.28;;;18.70;99.90;;;;;;5037774;28;20356;-67
2022/07/22 10:05:16;;;;;;;3.90;0.40;;;18.70;99.90;;;;;;5053808;28;20113;-70
2022/07/22 10:07:43;;;;;;;3.55;0.20;;;18.80;99.90;;;;;;5037560;28;20500;-69
2022/07/22 10:10:10;;;;;;;5.90;0.40;;;18.80;99.90;;;;;;5022337;28;20033;-70
2022/07/22 10:12:38;;;;;;;4.70;0.38;;;18.80;99.90;;;;;;5039495;28;20609;-69
2022/07/22 10:15:04;;;;;;;5.18;0.40;;;18.60;99.90;;;;;;5043334;28;20984;-70
2022/07/22 10:17:31;;;;;;;6.05;0.30;;;18.60;99.90;;;;;;5060630;28;20035;-69
2022/07/22 10:19:58;;;;;;;3.40;0.35;;;18.50;99.90;;;;;;5037783;28;20055;-68
2022/07/22 10:22:39;;;;;;;2.63;0.30;;;18.60;99.90;;;;;;5057935;28;20175;-69
2022/07/22 10:25:06;;;;;;;3.90;0.30;;;18.50;99.90;;;;;;5036612;28;20048;-68
2022/07/22 10:28:05;;;;;;;5.03;0.40;;;18.70;99.90;;;;;;5056697;28;20036;-68
2022/07/22 10:30:33;;;;;;;4.57;0.30;;;18.40;99.90;;;;;;5055125;28;20055;-67
2022/07/22 10:33:07;;;;;;;2.58;0.20;;;18.40;99.90;;;;;;5039526;28;20144;-68
2022/07/22 10:35:35;;;;;;;3.70;0.20;;;18.40;99.90;;;;;;5057521;28;20123;-68
2022/07/22 10:38:04;;;;;;;5.45;0.30;;;18.30;99.90;;;;;;5059838;28;20043;-69
2022/07/22 10:40:46;;;;;;;5.30;0.30;;;18.40;99.90;;;;;;5041202;28;20024;-68
2022/07/22 10:43:12;;;;;;;7.07;0.30;;;18.30;99.90;;;;;;5038967;28;20052;-69
2022/07/22 10:45:45;;;;;;;8.05;0.50;;;18.00;99.90;;;;;;5061295;28;20040;-70
2022/07/22 10:48:18;;;;;;;5.15;0.40;;;17.90;99.90;;;;;;5041471;28;20051;-69
2022/07/22 10:50:50;;;;;;;6.95;0.47;;;17.80;99.90;;;;;;5044342;28;20348;-68
2022/07/22 10:53:38;;;;;;;4.18;0.35;;;17.80;99.90;;;;;;5043510;28;20077;-68
2022/07/22 10:56:20;;;;;;;6.03;0.30;;;17.70;99.90;;;;;;5059976;28;20048;-67
2022/07/22 10:59:16;;;;;;;6.57;0.40;;;17.90;99.90;;;;;;5058622;28;20163;-68
2022/07/22 11:01:47;;;;;;;5.82;0.57;;;18.10;99.90;;;;;;5042006;28;20125;-69
2022/07/22 11:04:19;;;;;;;3.83;0.30;;;18.50;99.90;;;;;;5056662;28;20131;-70
2022/07/22 11:06:47;;;;;;;4.63;0.32;;;18.90;99.90;;;;;;5056537;28;20060;-68
2022/07/22 11:09:15;;;;;;;4.55;0.55;;;19.20;99.90;;;;;;5036412;28;20106;-70
2022/07/22 11:11:41;;;;;;;3.90;0.40;;;19.60;99.90;;;;;;5052592;28;20047;-68
2022/07/22 11:14:19;;;;;;;1.92;0.30;;;19.70;99.90;;;;;;5036579;28;20040;-69
2022/07/22 11:16:48;;;;;;;3.22;0.22;;;20.10;99.90;;;;;;5052920;28;20338;-69
2022/07/22 11:19:18;;;;;;;1.83;0.20;;;20.20;99.90;;;;;;5058355;28;20530;-67
2022/07/22 11:21:50;;;;;;;2.55;0.28;;;20.40;99.90;;;;;;5056272;28;20458;-70
2022/07/22 11:24:16;;;;;;;3.08;0.30;;;20.60;99.90;;;;;;5058812;28;20157;-70
2022/07/22 11:26:44;;;;;;;2.47;0.20;;;20.40;99.90;;;;;;5056562;28;20539;-69
2022/07/22 11:29:16;;;;;;;2.83;0.20;;;20.40;99.90;;;;;;5055743;28;20039;-68
2022/07/22 11:31:41;;;;;;;3.35;0.30;;;20.40;99.90;;;;;;5055216;28;20075;-70
2022/07/22 11:34:10;;;;;;;3.60;0.30;;;20.60;99.90;;;;;;5035429;28;20584;-67
2022/07/22 11:36:39;;;;;;;4.32;0.30;;;20.20;99.90;;;;;;5035934;28;20028;-69
2022/07/22 11:39:06;;;;;;;3.25;0.30;;;20.00;99.90;;;;;;5036243;28;20048;-67
2022/07/22 11:41:32;;;;;;;4.47;0.30;;;19.70;99.90;;;;;;5054732;28;20733;-69
2022/07/22 11:43:59;;;;;;;3.67;0.30;;;19.20;99.90;;;;;;5054942;28;20106;-67
2022/07/22 11:46:26;;;;;;;6.13;0.60;;;19.00;99.90;;;;;;5053215;28;20205;-71
2022/07/22 11:48:56;;;;;;;5.07;0.30;;;19.00;99.90;;;;;;5054856;28;20048;-68
2022/07/22 11:51:29;;;;;;;4.70;0.30;;;18.90;99.90;;;;;;5052160;28;20440;-71
2022/07/22 11:53:55;;;;;;;4.07;0.30;;;18.90;99.90;;;;;;5053107;28;21284;-69
2022/07/22 11:56:20;;;;;;;3.83;0.28;;;19.10;99.90;;;;;;5033995;28;20040;-68
2022/07/22 11:58:49;;;;;;;5.30;0.40;;;19.00;99.90;;;;;;5052888;28;20113;-69
2022/07/22 12:01:17;;;;;;;7.20;0.52;;;19.00;99.90;;;;;;5050684;28;20040;-70
2022/07/22 12:03:48;;;;;;;4.55;0.47;;;19.30;99.90;;;;;;5052978;28;20044;-69
2022/07/22 12:06:16;;;;;;;3.63;0.35;;;19.40;99.90;;;;;;5054918;28;20353;-68
2022/07/22 12:08:51;;;;;;;4.65;0.40;;;19.40;99.90;;;;;;5039080;28;20042;-67
2022/07/22 12:11:18;;;;;;;3.92;0.40;;;19.20;99.90;;;;;;5036427;28;20036;-67
2022/07/22 12:13:49;;;;;;;3.92;0.20;;;19.40;99.90;;;;;;5054661;28;20044;-69
2022/07/22 12:16:20;;;;;;;2.47;0.20;;;19.50;99.90;;;;;;5055301;28;20045;-68
2022/07/22 12:18:58;;;;;;;3.38;0.30;;;19.50;99.90;;;;;;5039637;28;20093;-68
2022/07/22 12:21:26;;;;;;;3.92;0.20;;;19.60;99.90;;;;;;5035362;28;20366;-68
2022/07/22 12:23:57;;;;;;;3.22;0.50;;;19.40;99.90;;;;;;5056617;28;20131;-70
2022/07/22 12:26:46;;;;;;;5.07;0.30;;;19.00;99.90;;;;;;5039303;28;20579;-68
2022/07/22 12:29:16;;;;;;;2.92;0.30;;;18.90;99.90;;;;;;5056458;28;20041;-69
2022/07/22 12:31:49;;;;;;;3.47;0.22;;;18.50;99.90;;;;;;5057724;28;20044;-70
2022/07/22 12:34:16;;;;;;;3.33;0.20;;;18.40;99.90;;;;;;5057265;28;20535;-69
2022/07/22 12:36:46;;;;;;;4.38;0.50;;;18.40;99.90;;;;;;5039486;28;20051;-69
2022/07/22 12:39:17;;;;;;;2.15;0.20;;;18.60;99.90;;;;;;5036913;28;20058;-68
2022/07/22 12:41:52;;;;;;;2.33;0.10;;;18.50;99.90;;;;;;5042589;28;20060;-69
2022/07/22 12:44:19;;;;;;;3.35;0.30;;;18.60;99.90;;;;;;5057567;28;20056;-70